Darstellungsparameter: Aktuell verwendete Einstellungen:
Skalierung der Graphiken ... ?
xyx+y,   Skalierungsfaktor:      Skalierung: Modus: x, Faktor: 1
Darstellungszeitraum ... ?
Vom - - bis: - -   Zeitraum: 25.02.2003 - 25.02.2003
Min/Max/Avg-Anzeige ... ?
Zeige MMA aktuell
Zeige MMA Monat
Zeige MMA alles
Zeige --A aktuell
Zeige --A Monat
Zeige --A alles
Keine MMA-Anzeige
MMA:
Minimum Maximum Average (ber die Originaldaten)
MMA-Basis: 23.02.2003 - 30.09.2000
Quicknavigation für Darstellung... ?
Tage:      1T, 2T, 3T, 5T -1T -2T -3T -5T +1T +2T +3T +5T
Wochen: 1W, 2W, 3W -1W -2W -3W +1W +2W +3W
Monate: 1M, 3M, 6M -1M -3M -6M +1M +3M +6M
Jahre:    1J, 3J, 5J, 10J -1J -3J -5J -10J +1J +3J +5J +10J
Nutze für die Darstellung ... ?
Originaldaten oder Mittelwerte auf ...
Stundenbasis Tagesbasis Wochenbasis
Monatsbasis Jahresbasis      Datenbasis: Original-Daten
Darstellen als:
Statistik (Auto) Statistik J:M      Darstellung:
Zur Graphik,    zurück zur Übersicht aller Sensoren.
 
Tabellarische Datenbersicht: ?
 
Sensor: Nr:Datum:Temp:Abs-Feuchte:Windchill:Wind:
Aussen-T/F 1 25-02-2003 00:03:09 -1.3 C 3.23 g/m*3 -1.3 C 0 km/h
2 25-02-2003 00:09:09 -1.1 C 3.28 g/m*3 -1.1 C 0 km/h
3 25-02-2003 00:15:09 -1.2 C 3.25 g/m*3 -1.2 C 0 km/h
4 25-02-2003 00:21:09 -1.2 C 3.25 g/m*3 -1.2 C 0 km/h
5 25-02-2003 00:27:09 -1.3 C 3.23 g/m*3 -1.3 C 0 km/h
6 25-02-2003 00:33:09 -1.4 C 3.21 g/m*3 -1.4 C 0 km/h
7 25-02-2003 00:39:09 -1.3 C 3.28 g/m*3 -1.3 C 0 km/h
8 25-02-2003 00:45:09 -1.3 C 3.28 g/m*3 -1.3 C 0 km/h
9 25-02-2003 00:51:09 -1.5 C 3.23 g/m*3 -1.5 C 0 km/h
10 25-02-2003 00:57:09 -1.7 C 3.19 g/m*3 -1.7 C 0 km/h
11 25-02-2003 01:03:09 -1.7 C 3.14 g/m*3 -1.7 C 0 km/h
12 25-02-2003 01:09:09 -1.7 C 3.19 g/m*3 -1.7 C 0 km/h
13 25-02-2003 01:15:09 -1.8 C 3.16 g/m*3 -1.8 C 0 km/h
14 25-02-2003 01:21:09 -1.9 C 3.14 g/m*3 -1.9 C 0 km/h
15 25-02-2003 01:27:09 -2 C 3.12 g/m*3 -2 C 0 km/h
16 25-02-2003 01:33:09 -2.2 C 3.08 g/m*3 -2.2 C 0 km/h
17 25-02-2003 01:39:09 -2.3 C 3.05 g/m*3 -2.3 C 0 km/h
18 25-02-2003 01:45:09 -2.4 C 3.03 g/m*3 -2.4 C 0 km/h
19 25-02-2003 01:51:09 -2.4 C 3.07 g/m*3 -2.4 C 0 km/h
20 25-02-2003 01:57:09 -2.3 C 3.1 g/m*3 -2.3 C 0 km/h
21 25-02-2003 02:03:09 -2.3 C 3.14 g/m*3 -2.3 C 0 km/h
22 25-02-2003 02:09:09 -2.3 C 3.1 g/m*3 -2.3 C 0 km/h
23 25-02-2003 02:15:09 -2.3 C 3.1 g/m*3 -2.3 C 0 km/h
24 25-02-2003 02:21:09 -2.3 C 3.1 g/m*3 -2.3 C 0 km/h
25 25-02-2003 02:27:09 -2.3 C 3.1 g/m*3 -2.3 C 0 km/h
Sensor: Nr:Datum:Temp:Abs-Feuchte:Windchill:Wind:
Aussen-T/F 26 25-02-2003 02:33:09 -2.6 C 3.03 g/m*3 -2.6 C 0 km/h
27 25-02-2003 02:39:09 -2.8 C 2.99 g/m*3 -2.8 C 0 km/h
28 25-02-2003 02:45:09 -2.8 C 3.03 g/m*3 -2.8 C 0 km/h
29 25-02-2003 02:51:09 -2.8 C 3.03 g/m*3 -2.8 C 0 km/h
30 25-02-2003 02:57:09 -2.9 C 3.01 g/m*3 -2.9 C 0 km/h
31 25-02-2003 03:03:09 -2.7 C 3.05 g/m*3 -2.7 C 0 km/h
32 25-02-2003 03:09:09 -2.9 C 3.01 g/m*3 -2.9 C 0 km/h
33 25-02-2003 03:15:09 -2.9 C 3.01 g/m*3 -2.9 C 0 km/h
34 25-02-2003 03:21:09 -3 C 2.99 g/m*3 -3 C 0 km/h
35 25-02-2003 03:27:09 -2.9 C 3.01 g/m*3 -2.9 C 0 km/h
36 25-02-2003 03:33:09 -3 C 2.99 g/m*3 -3 C 0 km/h
37 25-02-2003 03:39:09 -3.1 C 2.93 g/m*3 -3.1 C 0 km/h
38 25-02-2003 03:45:09 -3.2 C 2.9 g/m*3 -3.2 C 0 km/h
39 25-02-2003 03:51:09 -3.2 C 2.94 g/m*3 -3.2 C 0 km/h
40 25-02-2003 03:57:09 -3.3 C 2.92 g/m*3 -3.3 C 0 km/h
41 25-02-2003 04:03:09 -3.2 C 2.94 g/m*3 -3.2 C 0 km/h
42 25-02-2003 04:09:09 -3.2 C 2.94 g/m*3 -3.2 C 0 km/h
43 25-02-2003 04:15:09 -3.4 C 2.9 g/m*3 -3.4 C 0 km/h
44 25-02-2003 04:21:09 -3.5 C 2.88 g/m*3 -3.5 C 0 km/h
45 25-02-2003 04:27:09 -3.5 C 2.88 g/m*3 -3.5 C 0 km/h
46 25-02-2003 04:33:09 -3.6 C 2.86 g/m*3 -3.6 C 0 km/h
47 25-02-2003 04:39:09 -3.6 C 2.86 g/m*3 -3.6 C 0 km/h
48 25-02-2003 04:45:09 -3.5 C 2.92 g/m*3 -3.5 C 0 km/h
49 25-02-2003 04:51:09 -3.8 C 2.82 g/m*3 -3.8 C 0 km/h
50 25-02-2003 04:57:09 -4 C 2.74 g/m*3 -4 C 0 km/h
Sensor: Nr:Datum:Temp:Abs-Feuchte:Windchill:Wind:
Aussen-T/F 51 25-02-2003 05:03:09 -4.1 C 2.72 g/m*3 -4.1 C 0 km/h
52 25-02-2003 05:09:09 -4.2 C 2.74 g/m*3 -4.2 C 0 km/h
53 25-02-2003 05:15:09 -4.2 C 2.78 g/m*3 -4.2 C 0 km/h
54 25-02-2003 05:21:09 -4.3 C 2.76 g/m*3 -4.3 C 0 km/h
55 25-02-2003 05:27:09 -4.4 C 2.7 g/m*3 -4.4 C 0 km/h
56 25-02-2003 05:33:09 -4.7 C 2.64 g/m*3 -4.7 C 0 km/h
57 25-02-2003 05:39:09 -4.7 C 2.64 g/m*3 -4.7 C 0 km/h
58 25-02-2003 05:45:09 -4.7 C 2.64 g/m*3 -4.7 C 0 km/h
59 25-02-2003 05:51:09 -4.7 C 2.68 g/m*3 -4.7 C 0 km/h
60 25-02-2003 05:57:09 -4.8 C 2.66 g/m*3 -4.8 C 0 km/h
61 25-02-2003 06:03:09 -4.8 C 2.66 g/m*3 -4.8 C 0 km/h
62 25-02-2003 06:09:09 -4.8 C 2.66 g/m*3 -4.8 C 0 km/h
63 25-02-2003 06:15:09 -4.9 C 2.64 g/m*3 -4.9 C 0 km/h
64 25-02-2003 06:21:09 -4.9 C 2.64 g/m*3 -4.9 C 0 km/h
65 25-02-2003 06:27:09 -4.8 C 2.66 g/m*3 -4.8 C 0 km/h
66 25-02-2003 06:33:09 -4.9 C 2.64 g/m*3 -4.9 C 0 km/h
67 25-02-2003 06:39:09 -5 C 2.62 g/m*3 -5 C 0 km/h
68 25-02-2003 06:45:09 -5 C 2.62 g/m*3 -5 C 0 km/h
69 25-02-2003 06:51:09 -5.1 C 2.6 g/m*3 -5.1 C 0 km/h
70 25-02-2003 06:57:09 -5.2 C 2.58 g/m*3 -5.2 C 0 km/h
71 25-02-2003 07:03:09 -5.2 C 2.58 g/m*3 -5.2 C 0 km/h
72 25-02-2003 07:09:09 -5.4 C 2.55 g/m*3 -5.4 C 0 km/h
73 25-02-2003 07:15:09 -5.4 C 2.55 g/m*3 -5.4 C 0 km/h
74 25-02-2003 07:21:09 -5.5 C 2.53 g/m*3 -5.5 C 0 km/h
75 25-02-2003 07:27:09 -5.5 C 2.53 g/m*3 -5.5 C 0 km/h
Sensor: Nr:Datum:Temp:Abs-Feuchte:Windchill:Wind:
Aussen-T/F 76 25-02-2003 07:33:09 -5.4 C 2.55 g/m*3 -5.4 C 0 km/h
77 25-02-2003 07:39:09 -5.5 C 2.53 g/m*3 -5.5 C 0 km/h
78 25-02-2003 07:45:09 -5.4 C 2.55 g/m*3 -5.4 C 0 km/h
79 25-02-2003 07:51:09 -5.4 C 2.55 g/m*3 -5.4 C 0 km/h
80 25-02-2003 07:57:09 -5.4 C 2.55 g/m*3 -5.4 C 0 km/h
81 25-02-2003 08:03:09 -5.3 C 2.57 g/m*3 -5.3 C 0 km/h
82 25-02-2003 08:09:09 -5.2 C 2.58 g/m*3 -5.2 C 0 km/h
83 25-02-2003 08:15:09 -5.1 C 2.6 g/m*3 -5.1 C 0 km/h
84 25-02-2003 08:21:09 -5 C 2.62 g/m*3 -5 C 0 km/h
85 25-02-2003 08:27:09 -5.1 C 2.6 g/m*3 -5.1 C 0 km/h
86 25-02-2003 08:33:09 -5 C 2.62 g/m*3 -5 C 0 km/h
87 25-02-2003 08:39:09 -5 C 2.62 g/m*3 -5 C 0 km/h
88 25-02-2003 08:45:09 -5 C 2.62 g/m*3 -5 C 0 km/h
89 25-02-2003 08:51:09 -5 C 2.62 g/m*3 -5 C 0 km/h
90 25-02-2003 08:57:09 -4.7 C 2.71 g/m*3 -4.7 C 0 km/h
91 25-02-2003 09:03:09 -4.7 C 2.71 g/m*3 -4.7 C 0 km/h
92 25-02-2003 09:09:09 -4.6 C 2.73 g/m*3 -4.6 C 0 km/h
93 25-02-2003 09:15:09 -4.6 C 2.7 g/m*3 -4.6 C 0 km/h
94 25-02-2003 09:21:09 -4.4 C 2.74 g/m*3 -4.4 C 0 km/h
95 25-02-2003 09:27:09 -4.4 C 2.74 g/m*3 -4.4 C 0 km/h
96 25-02-2003 09:33:09 -4.3 C 2.76 g/m*3 -4.3 C 0 km/h
97 25-02-2003 09:39:09 -4.2 C 2.81 g/m*3 -4.2 C 0 km/h
98 25-02-2003 09:45:09 -4.1 C 2.83 g/m*3 -4.1 C 0 km/h
99 25-02-2003 09:51:09 -4 C 2.85 g/m*3 -4 C 0 km/h
100 25-02-2003 09:57:09 -3.8 C 2.89 g/m*3 -3.8 C 0 km/h
Sensor: Nr:Datum:Temp:Abs-Feuchte:Windchill:Wind:
Aussen-T/F 101 25-02-2003 10:03:09 -3.5 C 2.99 g/m*3 -3.5 C 0 km/h
102 25-02-2003 10:09:09 -3 C 3.14 g/m*3 -3 C 0 km/h
103 25-02-2003 10:15:09 -2.7 C 3.25 g/m*3 -2.7 C 0 km/h
104 25-02-2003 10:21:09 -2.3 C 3.34 g/m*3 -2.3 C 0 km/h
105 25-02-2003 10:27:09 -1.9 C 3.44 g/m*3 -1.9 C 0 km/h
106 25-02-2003 10:33:09 -1.2 C 3.57 g/m*3 -1.2 C 0 km/h
107 25-02-2003 10:39:09 -0.9 C 3.64 g/m*3 -0.9 C 0 km/h
108 25-02-2003 10:45:09 -0.4 C 3.72 g/m*3 -0.4 C 0 km/h
109 25-02-2003 10:51:09 -0.2 C 3.73 g/m*3 -0.2 C 0 km/h
110 25-02-2003 10:57:09 0.2 C 3.83 g/m*3 0.2 C 0 km/h
111 25-02-2003 11:03:09 0.3 C 3.86 g/m*3 0.3 C 0 km/h
112 25-02-2003 11:09:09 0.7 C 3.97 g/m*3 0.7 C 0 km/h
113 25-02-2003 11:15:09 0.7 C 3.97 g/m*3 0.7 C 0 km/h
114 25-02-2003 11:21:09 1.3 C 3.97 g/m*3 1.3 C 0 km/h
115 25-02-2003 11:27:09 1.5 C 3.97 g/m*3 1.5 C 0 km/h
116 25-02-2003 11:33:09 1.8 C 3.89 g/m*3 1.8 C 0 km/h
117 25-02-2003 11:39:09 2.5 C 3.68 g/m*3 2.5 C 0 km/h
118 25-02-2003 11:45:09 2.9 C 3.48 g/m*3 2.9 C 0 km/h
119 25-02-2003 11:51:09 3 C 3.39 g/m*3 3 C 0 km/h
120 25-02-2003 11:57:09 3.3 C 3.52 g/m*3 3.3 C 0 km/h
121 25-02-2003 12:03:09 3.6 C 3.53 g/m*3 3.6 C 0 km/h
122 25-02-2003 12:09:09 4.1 C 3.26 g/m*3 4.1 C 0 km/h
123 25-02-2003 12:15:09 4.8 C 3.08 g/m*3 4.8 C 0 km/h
124 25-02-2003 12:21:09 5.2 C 3.1 g/m*3 5.2 C 0 km/h
125 25-02-2003 12:27:09 5.7 C 3.06 g/m*3 5.7 C 0 km/h
Sensor: Nr:Datum:Temp:Abs-Feuchte:Windchill:Wind:
Aussen-T/F 126 25-02-2003 12:33:09 6.1 C 3 g/m*3 6.1 C 0 km/h
127 25-02-2003 12:39:09 6.3 C 2.96 g/m*3 6.3 C 0 km/h
128 25-02-2003 12:45:09 6.5 C 3 g/m*3 6.5 C 0 km/h
129 25-02-2003 12:51:09 6.9 C 3 g/m*3 6.9 C 0 km/h
130 25-02-2003 12:57:09 7.2 C 2.98 g/m*3 7.2 C 0 km/h
131 25-02-2003 13:03:09 7.4 C 2.94 g/m*3 7.4 C 0 km/h
132 25-02-2003 13:09:09 7.7 C 2.92 g/m*3 7.7 C 0 km/h
133 25-02-2003 13:15:09 7.9 C 2.96 g/m*3 7.9 C 0 km/h
134 25-02-2003 13:21:09 8.2 C 2.93 g/m*3 8.2 C 0 km/h
135 25-02-2003 13:27:09 8.6 C 3.01 g/m*3 8.6 C 0 km/h
136 25-02-2003 13:33:09 8.9 C 2.98 g/m*3 8.9 C 0 km/h
137 25-02-2003 13:39:09 9.1 C 2.93 g/m*3 9.1 C 0 km/h
138 25-02-2003 13:45:09 9.4 C 2.98 g/m*3 9.4 C 0 km/h
139 25-02-2003 13:51:09 9.6 C 2.93 g/m*3 9.6 C 0 km/h
140 25-02-2003 13:57:09 9.8 C 3.06 g/m*3 9.8 C 0 km/h
141 25-02-2003 14:03:09 10.2 C 2.95 g/m*3 10.2 C 0 km/h
142 25-02-2003 14:09:09 10.3 C 2.87 g/m*3 10.3 C 0 km/h
143 25-02-2003 14:15:09 10.5 C 2.91 g/m*3 10.5 C 0 km/h
144 25-02-2003 14:21:09 10.8 C 2.97 g/m*3 10.8 C 0 km/h
145 25-02-2003 14:33:09 11 C 3 g/m*3 11 C 0 km/h
146 25-02-2003 14:39:09 11.3 C 3.06 g/m*3 11.3 C 0 km/h
147 25-02-2003 14:45:09 11.7 C 3.14 g/m*3 11.7 C 0 km/h
148 25-02-2003 14:51:09 11.5 C 3.1 g/m*3 11.5 C 0 km/h
149 25-02-2003 14:57:09 11.9 C 3.07 g/m*3 11.9 C 0 km/h
150 25-02-2003 15:03:09 12.1 C 2.9 g/m*3 12.1 C 0 km/h
Sensor: Nr:Datum:Temp:Abs-Feuchte:Windchill:Wind:
Aussen-T/F 151 25-02-2003 15:09:09 12.2 C 3.02 g/m*3 12.2 C 0 km/h
152 25-02-2003 15:15:09 12.3 C 3.26 g/m*3 12.3 C 0 km/h
153 25-02-2003 15:21:09 12.4 C 3.28 g/m*3 12.4 C 0 km/h
154 25-02-2003 15:27:09 12.4 C 3.17 g/m*3 12.4 C 0 km/h
155 25-02-2003 15:33:09 12.5 C 3.08 g/m*3 12.5 C 0 km/h
156 25-02-2003 15:39:09 12.6 C 3.32 g/m*3 12.6 C 0 km/h
157 25-02-2003 15:45:09 12.7 C 3.23 g/m*3 12.7 C 0 km/h
158 25-02-2003 15:51:09 12.8 C 3.25 g/m*3 12.8 C 0 km/h
159 25-02-2003 15:57:09 12.9 C 3.16 g/m*3 12.9 C 0 km/h
160 25-02-2003 16:03:09 12.7 C 2.89 g/m*3 12.7 C 0 km/h
161 25-02-2003 16:09:09 12.8 C 3.02 g/m*3 12.8 C 0 km/h
162 25-02-2003 16:15:09 12.7 C 3.12 g/m*3 12.7 C 0 km/h
163 25-02-2003 16:21:09 12.5 C 3.19 g/m*3 12.5 C 0 km/h
164 25-02-2003 16:27:09 12.2 C 3.24 g/m*3 12.2 C 0 km/h
165 25-02-2003 16:33:09 12 C 3.2 g/m*3 12 C 0 km/h
166 25-02-2003 16:39:09 11.8 C 3.37 g/m*3 11.8 C 0 km/h
167 25-02-2003 16:45:09 11.7 C 3.35 g/m*3 11.7 C 0 km/h
168 25-02-2003 16:51:09 11.4 C 3.28 g/m*3 11.4 C 0 km/h
169 25-02-2003 16:57:09 11 C 3.2 g/m*3 11 C 0 km/h
170 25-02-2003 17:03:09 10.7 C 3.24 g/m*3 10.7 C 0 km/h
171 25-02-2003 17:09:09 10.8 C 3.36 g/m*3 10.8 C 0 km/h
172 25-02-2003 17:15:09 10.3 C 3.26 g/m*3 10.3 C 0 km/h
173 25-02-2003 17:21:09 10.1 C 3.22 g/m*3 10.1 C 0 km/h
174 25-02-2003 17:27:09 9.6 C 3.21 g/m*3 9.6 C 0 km/h
175 25-02-2003 17:33:09 8.8 C 3.13 g/m*3 8.8 C 0 km/h
Sensor: Nr:Datum:Temp:Abs-Feuchte:Windchill:Wind:
Aussen-T/F 176 25-02-2003 17:39:09 8.1 C 3.16 g/m*3 8.1 C 0 km/h
177 25-02-2003 17:45:09 7.5 C 3.2 g/m*3 7.5 C 0 km/h
178 25-02-2003 17:51:09 7 C 3.18 g/m*3 7 C 0 km/h
179 25-02-2003 17:57:09 6.7 C 3.19 g/m*3 6.7 C 0 km/h
180 25-02-2003 18:03:09 6.2 C 3.24 g/m*3 6.2 C 0 km/h
181 25-02-2003 18:09:09 5.9 C 3.17 g/m*3 5.9 C 0 km/h
182 25-02-2003 18:15:09 5.6 C 3.18 g/m*3 5.6 C 0 km/h
183 25-02-2003 18:21:09 5.5 C 3.16 g/m*3 5.5 C 0 km/h
184 25-02-2003 18:27:09 5.2 C 3.17 g/m*3 5.2 C 0 km/h
185 25-02-2003 18:33:09 4.9 C 3.17 g/m*3 4.9 C 0 km/h
186 25-02-2003 18:39:09 4.7 C 3.13 g/m*3 4.7 C 0 km/h
187 25-02-2003 18:45:09 4.5 C 3.16 g/m*3 4.5 C 0 km/h
188 25-02-2003 18:51:09 4.1 C 3.26 g/m*3 4.1 C 0 km/h
189 25-02-2003 18:57:09 3.8 C 3.26 g/m*3 3.8 C 0 km/h
190 25-02-2003 19:03:09 3.7 C 3.18 g/m*3 3.7 C 0 km/h
191 25-02-2003 19:09:09 3.6 C 3.22 g/m*3 3.6 C 0 km/h
192 25-02-2003 19:15:09 3.5 C 3.26 g/m*3 3.5 C 0 km/h
193 25-02-2003 19:21:09 3.2 C 3.19 g/m*3 3.2 C 0 km/h
194 25-02-2003 19:27:09 3.1 C 3.23 g/m*3 3.1 C 0 km/h
195 25-02-2003 19:33:09 2.9 C 3.25 g/m*3 2.9 C 0 km/h
196 25-02-2003 19:39:09 2.8 C 3.28 g/m*3 2.8 C 0 km/h
197 25-02-2003 19:45:09 2.7 C 3.26 g/m*3 2.7 C 0 km/h
198 25-02-2003 19:51:09 2.5 C 3.28 g/m*3 2.5 C 0 km/h
199 25-02-2003 19:57:09 2.4 C 3.25 g/m*3 2.4 C 0 km/h
200 25-02-2003 20:04:10 2.1 C 3.24 g/m*3 2.1 C 0 km/h
Sensor: Nr:Datum:Temp:Abs-Feuchte:Windchill:Wind:
Aussen-T/F 201 25-02-2003 20:10:10 2 C 3.22 g/m*3 2 C 0 km/h
202 25-02-2003 20:16:10 2 C 3.22 g/m*3 2 C 0 km/h
203 25-02-2003 20:22:10 2 C 3.17 g/m*3 2 C 0 km/h
204 25-02-2003 20:28:10 1.8 C 3.12 g/m*3 1.8 C 0 km/h
205 25-02-2003 20:34:10 1.8 C 3.12 g/m*3 1.8 C 0 km/h
206 25-02-2003 20:40:10 1.7 C 3.1 g/m*3 1.7 C 0 km/h
207 25-02-2003 20:46:10 1.4 C 3.09 g/m*3 1.4 C 0 km/h
208 25-02-2003 20:52:10 1.1 C 3.08 g/m*3 1.1 C 0 km/h
209 25-02-2003 20:58:10 1 C 3.11 g/m*3 1 C 0 km/h
210 25-02-2003 21:04:10 0.8 C 3.17 g/m*3 0.8 C 0 km/h
211 25-02-2003 21:10:10 0.7 C 3.2 g/m*3 0.7 C 0 km/h
212 25-02-2003 21:16:10 0.5 C 3.16 g/m*3 0.5 C 0 km/h
213 25-02-2003 21:22:10 0.3 C 3.07 g/m*3 0.3 C 0 km/h
214 25-02-2003 21:28:10 0.2 C 3.09 g/m*3 0.2 C 0 km/h
215 25-02-2003 21:34:10 0.2 C 3.14 g/m*3 0.2 C 0 km/h
216 25-02-2003 21:40:10 0.2 C 3.14 g/m*3 0.2 C 0 km/h
217 25-02-2003 21:46:10 0.1 C 3.12 g/m*3 0.1 C 0 km/h
218 25-02-2003 21:52:10 0 C 3.1 g/m*3 0 C 0 km/h
219 25-02-2003 21:58:10 -0.2 C 3.06 g/m*3 -0.2 C 0 km/h
220 25-02-2003 22:04:10 -0.2 C 3.11 g/m*3 -0.2 C 0 km/h
221 25-02-2003 22:10:10 -0.4 C 3.11 g/m*3 -0.4 C 0 km/h
222 25-02-2003 22:16:10 -0.6 C 3.02 g/m*3 -0.6 C 0 km/h
223 25-02-2003 22:22:10 -0.8 C 3.03 g/m*3 -0.8 C 0 km/h
224 25-02-2003 22:28:10 -0.6 C 3.11 g/m*3 -0.6 C 0 km/h
225 25-02-2003 22:34:10 -0.6 C 3.07 g/m*3 -0.6 C 0 km/h
Sensor: Nr:Datum:Temp:Abs-Feuchte:Windchill:Wind:
Aussen-T/F 226 25-02-2003 22:40:10 -0.7 C 3.05 g/m*3 -0.7 C 0 km/h
227 25-02-2003 22:46:10 -0.5 C 3.09 g/m*3 -0.5 C 0 km/h
228 25-02-2003 22:52:10 -0.6 C 3.02 g/m*3 -0.6 C 0 km/h
229 25-02-2003 22:58:10 -0.9 C 2.96 g/m*3 -0.9 C 0 km/h
230 25-02-2003 23:04:10 -1.1 C 2.92 g/m*3 -1.1 C 0 km/h
231 25-02-2003 23:10:10 -1.2 C 2.94 g/m*3 -1.2 C 0 km/h
232 25-02-2003 23:16:10 -1.3 C 2.92 g/m*3 -1.3 C 0 km/h
233 25-02-2003 23:22:10 -1.4 C 2.9 g/m*3 -1.4 C 0 km/h
234 25-02-2003 23:28:10 -1.4 C 2.95 g/m*3 -1.4 C 0 km/h
235 25-02-2003 23:34:10 -1.4 C 2.95 g/m*3 -1.4 C 0 km/h
236 25-02-2003 23:40:10 -1.5 C 2.92 g/m*3 -1.5 C 0 km/h
237 25-02-2003 23:46:10 -1.4 C 2.95 g/m*3 -1.4 C 0 km/h
238 25-02-2003 23:52:10 -1.5 C 2.92 g/m*3 -1.5 C 0 km/h
239 25-02-2003 23:58:10 -1.7 C 2.84 g/m*3 -1.7 C 0 km/h

Legende:
   Min
   Max


Maximal/Minimal-Werte vom 23.02.2003 - 30.09.2000

Sensor Min Max Avg
Temp
(Aussen-T/F)
°C
-- 
°C 0 °C

Die Daten stammen von einer Davis Vantage Pro 2 Wetter-Station und werden unter Linux mit der Software wview2wettercgi und aufbereitet. Alle Angaben erfolgen ohne Gewähr für ihre Vollständigkeit oder Richtigkeit.
Kontakt: Rainer Krienke krienke@uni-koblenz.de . Meine Webseiten an der Uni Koblenz oder privat.
Version: $Revision: 0.78 $